METAR Data
IDs: Format: Raw Decoded Include TAF

Data at: 1121 UTC 28 Sep 2021

LFPO 281100Z 23007KT 180V280 9999 FEW030 BKN230 17/10 Q1022 NOSIG